Time;durP1;ratioP1;P1;durP2;ratioP2;P2;SDS_P1;SDS_P2;PMS_P1;PMS_P2;Temp;Humidity;BMP_temperature;BMP_pressure;BME280_temperature;BME280_humidity;BME280_pressure;Samples;Min_cycle;Max_cycle;Signal;HPM_P1;HPM_P2
2021/05/31 00:02:21;;;;;;;8.57;5.63;;;;;;;7.86;75.20;101514.84;5057667;28;20104;-76
2021/05/31 00:04:46;;;;;;;7.55;5.20;;;;;;;7.79;77.15;101513.81;5045816;28;20034;-76
2021/05/31 00:07:19;;;;;;;7.32;5.22;;;;;;;7.82;76.89;101510.38;5042023;28;20044;-76
2021/05/31 00:09:46;;;;;;;8.23;5.63;;;;;;;7.73;78.45;101508.44;5043629;28;20045;-76
2021/05/31 00:12:16;;;;;;;10.48;5.57;;;;;;;7.73;76.19;101510.16;5043136;28;20036;-76
2021/05/31 00:14:42;;;;;;;8.10;5.57;;;;;;;7.63;76.70;101509.09;5042693;28;20045;-76
2021/05/31 00:17:09;;;;;;;7.95;5.53;;;;;;;7.54;76.15;101501.88;5043436;28;20032;-76
2021/05/31 00:19:35;;;;;;;9.07;5.55;;;;;;;7.42;77.19;101494.63;5042202;28;20061;-76
2021/05/31 00:22:00;;;;;;;8.63;6.35;;;;;;;7.30;78.68;101498.72;5044401;28;20068;-76
2021/05/31 00:24:26;;;;;;;7.72;5.32;;;;;;;7.33;77.42;101498.78;5040892;28;20040;-76
2021/05/31 00:26:53;;;;;;;8.13;4.80;;;;;;;7.34;77.05;101490.97;5044474;28;20492;-76
2021/05/31 00:29:25;;;;;;;6.95;5.03;;;;;;;7.34;76.72;101488.34;5050466;28;20048;-76
2021/05/31 00:31:53;;;;;;;9.48;6.10;;;;;;;7.34;76.38;101490.97;5049709;28;20112;-76
2021/05/31 00:34:18;;;;;;;8.43;5.65;;;;;;;7.20;77.13;101497.63;5040892;28;20063;-76
2021/05/31 00:36:44;;;;;;;8.88;5.53;;;;;;;7.22;77.14;101490.66;5043423;28;20124;-76
2021/05/31 00:39:09;;;;;;;8.30;5.80;;;;;;;7.28;77.96;101490.78;5041151;28;20132;-76
2021/05/31 00:41:35;;;;;;;7.95;5.47;;;;;;;7.34;77.46;101485.72;5042078;28;20112;-76
2021/05/31 00:44:01;;;;;;;8.40;5.93;;;;;;;7.32;78.29;101490.03;5025477;28;20127;-76
2021/05/31 00:46:26;;;;;;;9.27;5.88;;;;;;;7.37;77.33;101496.28;5039775;28;20030;-76
2021/05/31 00:48:52;;;;;;;8.35;5.30;;;;;;;7.40;77.07;101491.09;5044314;28;20469;-75
2021/05/31 00:51:18;;;;;;;6.53;4.63;;;;;;;7.42;76.94;101496.38;5039651;28;20124;-76
2021/05/31 00:53:43;;;;;;;8.07;4.78;;;;;;;7.33;76.52;101493.53;5043109;28;20033;-76
2021/05/31 00:56:09;;;;;;;7.43;4.70;;;;;;;7.25;77.70;101498.63;5041613;28;20094;-75
2021/05/31 00:58:36;;;;;;;7.32;4.80;;;;;;;7.22;76.89;101496.81;5042183;28;20048;-75
2021/05/31 01:01:04;;;;;;;7.32;5.53;;;;;;;7.19;76.99;101490.59;5041565;28;20059;-75
2021/05/31 01:03:29;;;;;;;9.35;5.25;;;;;;;7.15;76.57;101491.38;5041196;28;20775;-76
2021/05/31 01:06:01;;;;;;;8.63;5.75;;;;;;;7.02;77.88;101492.81;5042163;28;20025;-76
2021/05/31 01:08:51;;;;;;;6.78;5.25;;;;;;;6.99;78.76;101496.25;5039850;28;20036;-76
2021/05/31 01:11:31;;;;;;;7.47;4.72;;;;;;;6.95;78.36;101490.91;5039550;28;20041;-75
2021/05/31 01:14:08;;;;;;;6.05;4.45;;;;;;;6.88;78.45;101482.00;5045325;28;20037;-76
2021/05/31 01:16:46;;;;;;;6.43;4.80;;;;;;;6.88;77.60;101483.75;5040760;28;20029;-76
2021/05/31 01:19:48;;;;;;;7.80;5.75;;;;;;;6.87;78.00;101484.59;5042990;28;20035;-76
2021/05/31 01:22:15;;;;;;;6.15;4.18;;;;;;;6.88;77.11;101478.50;5043493;28;20136;-76
2021/05/31 01:24:49;;;;;;;7.03;5.15;;;;;;;6.79;78.39;101480.06;5040311;28;20033;-75
2021/05/31 01:27:25;;;;;;;9.15;5.57;;;;;;;6.72;78.57;101479.84;5038799;28;20040;-76
2021/05/31 01:29:55;;;;;;;6.93;5.40;;;;;;;6.69;79.88;101477.16;5040223;28;20723;-76
2021/05/31 01:32:35;;;;;;;7.00;4.60;;;;;;;6.69;78.44;101479.78;5043111;28;20040;-76
2021/05/31 01:35:09;;;;;;;6.38;4.95;;;;;;;6.73;78.08;101479.91;5039926;28;20065;-76
2021/05/31 01:37:35;;;;;;;7.35;4.57;;;;;;;6.75;77.59;101485.19;5041163;28;20040;-76
2021/05/31 01:40:06;;;;;;;7.10;5.55;;;;;;;6.66;79.34;101484.97;5041498;28;20489;-76
2021/05/31 01:42:32;;;;;;;8.00;5.45;;;;;;;6.59;80.90;101482.16;5041273;28;20029;-76
2021/05/31 01:44:59;;;;;;;5.80;4.13;;;;;;;6.56;80.52;101478.59;5040784;28;20021;-76
2021/05/31 01:47:26;;;;;;;7.40;4.57;;;;;;;6.50;81.26;101481.94;5040846;28;20032;-76
2021/05/31 01:49:51;;;;;;;6.15;4.53;;;;;;;6.40;81.20;101474.69;5040276;28;20041;-76
2021/05/31 01:52:17;;;;;;;5.40;4.15;;;;;;;6.35;81.42;101471.06;5043041;28;20086;-76
2021/05/31 01:54:43;;;;;;;5.60;4.18;;;;;;;6.33;80.35;101475.38;5039148;28;20041;-76
2021/05/31 01:57:09;;;;;;;5.93;4.00;;;;;;;6.35;79.24;101473.69;5042622;28;20048;-76
2021/05/31 01:59:35;;;;;;;7.13;5.13;;;;;;;6.28;78.33;101474.34;5039014;28;20071;-76
2021/05/31 02:02:01;;;;;;;6.45;4.30;;;;;;;6.22;79.34;101475.09;5041727;28;20057;-76
2021/05/31 02:04:27;;;;;;;8.77;6.40;;;;;;;6.19;79.38;101469.78;5040856;28;20441;-76
2021/05/31 02:06:53;;;;;;;6.78;5.10;;;;;;;6.20;79.22;101465.41;5040494;28;20029;-76
2021/05/31 02:09:19;;;;;;;7.55;5.45;;;;;;;6.19;79.44;101464.53;5042300;28;20056;-76
2021/05/31 02:11:59;;;;;;;8.23;5.50;;;;;;;6.19;79.36;101463.66;5039522;28;20041;-76
2021/05/31 02:14:43;;;;;;;9.52;6.03;;;;;;;6.19;79.53;101458.41;5040930;28;20516;-76
2021/05/31 02:17:31;;;;;;;7.43;5.20;;;;;;;6.17;80.26;101465.34;5041552;28;20113;-76
2021/05/31 02:20:05;;;;;;;6.88;5.18;;;;;;;6.12;80.08;101470.44;5049551;28;20091;-76
2021/05/31 02:22:32;;;;;;;7.45;5.43;;;;;;;6.14;79.76;101460.91;5039133;28;20492;-76
2021/05/31 02:24:57;;;;;;;8.02;5.85;;;;;;;6.17;79.36;101465.34;5045356;28;20032;-76
2021/05/31 02:27:24;;;;;;;7.30;5.88;;;;;;;6.17;79.48;101468.84;5045365;28;20411;-76
2021/05/31 02:29:49;;;;;;;6.82;5.32;;;;;;;6.17;79.10;101462.72;5043165;28;20124;-76
2021/05/31 02:32:15;;;;;;;7.50;5.28;;;;;;;6.15;79.24;101471.41;5046324;28;20111;-76
2021/05/31 02:34:40;;;;;;;5.80;4.57;;;;;;;6.16;78.93;101459.22;5042912;28;20497;-75
2021/05/31 02:37:07;;;;;;;6.50;4.43;;;;;;;6.10;78.78;101454.69;5046532;28;20086;-75
2021/05/31 02:39:33;;;;;;;6.50;4.72;;;;;;;6.03;79.01;101458.00;5043313;28;20143;-76
2021/05/31 02:41:58;;;;;;;7.55;5.15;;;;;;;6.03;79.04;101460.59;5045588;28;20493;-76
2021/05/31 02:44:23;;;;;;;6.38;4.78;;;;;;;6.02;79.02;101453.56;5044244;28;20389;-76
2021/05/31 02:46:49;;;;;;;5.95;4.75;;;;;;;6.00;79.57;101452.66;5044298;28;20060;-76
2021/05/31 02:49:14;;;;;;;7.25;5.03;;;;;;;6.02;79.31;101458.81;5045810;28;20053;-76
2021/05/31 02:51:40;;;;;;;6.63;5.28;;;;;;;6.03;79.81;101452.75;5043027;28;20033;-76
2021/05/31 02:54:09;;;;;;;7.35;4.97;;;;;;;6.02;79.39;101455.31;5044754;28;20496;-76
2021/05/31 02:56:35;;;;;;;6.45;5.03;;;;;;;6.04;79.51;101464.09;5053086;28;20051;-76
2021/05/31 02:59:00;;;;;;;6.07;5.10;;;;;;;6.04;79.44;101462.38;5043291;28;20037;-76
2021/05/31 03:01:25;;;;;;;7.82;4.72;;;;;;;6.05;78.83;101451.06;5045103;28;20040;-76
2021/05/31 03:03:51;;;;;;;6.65;4.50;;;;;;;6.01;78.56;101441.31;5043982;28;20082;-76
2021/05/31 03:06:16;;;;;;;5.45;3.92;;;;;;;5.93;79.14;101458.53;5043876;28;20685;-76
2021/05/31 03:08:42;;;;;;;6.28;4.30;;;;;;;5.91;79.09;101457.59;5045181;28;20086;-76
2021/05/31 03:11:07;;;;;;;7.15;4.20;;;;;;;5.93;79.04;101461.16;5042632;28;20120;-76
2021/05/31 03:13:32;;;;;;;5.97;3.72;;;;;;;5.89;79.08;101460.22;5043148;28;20033;-77
2021/05/31 03:15:58;;;;;;;7.20;5.03;;;;;;;5.88;79.14;101462.78;5047812;28;20561;-75
2021/05/31 03:18:23;;;;;;;8.40;4.68;;;;;;;5.91;79.68;101463.72;5048611;28;20524;-76
2021/05/31 03:20:48;;;;;;;8.48;5.35;;;;;;;5.97;79.85;101460.41;5049650;28;20060;-76
2021/05/31 03:23:14;;;;;;;8.05;5.20;;;;;;;6.00;79.54;101467.47;5044613;28;20056;-76
2021/05/31 03:25:40;;;;;;;9.05;5.80;;;;;;;6.05;79.89;101472.03;5042578;28;20029;-76
2021/05/31 03:28:06;;;;;;;8.48;6.57;;;;;;;6.10;79.93;101475.66;5052232;28;20417;-76
2021/05/31 03:30:32;;;;;;;8.27;5.97;;;;;;;6.17;79.69;101473.19;5045899;28;20077;-76
2021/05/31 03:32:58;;;;;;;9.75;6.47;;;;;;;6.22;80.04;101471.59;5045289;28;20087;-76
2021/05/31 03:35:24;;;;;;;8.27;6.68;;;;;;;6.25;79.91;101464.69;5041320;28;20481;-76
2021/05/31 03:37:49;;;;;;;12.20;8.48;;;;;;;6.33;80.16;101468.38;5044285;28;20091;-75
2021/05/31 03:40:21;;;;;;;8.50;6.75;;;;;;;6.44;80.34;101473.03;5044177;28;20028;-75
2021/05/31 03:42:46;;;;;;;9.75;6.50;;;;;;;6.53;79.88;101468.03;5043794;28;20034;-75
2021/05/31 03:45:12;;;;;;;7.85;6.32;;;;;;;6.51;79.93;101473.22;5043803;28;20051;-75
2021/05/31 03:47:37;;;;;;;8.18;6.97;;;;;;;6.62;79.78;101475.22;5042765;28;20087;-76
2021/05/31 03:50:04;;;;;;;7.85;6.28;;;;;;;6.73;79.74;101474.66;5042018;28;20043;-77
2021/05/31 03:52:29;;;;;;;8.70;6.03;;;;;;;6.76;78.90;101473.84;5044685;28;20055;-76
2021/05/31 03:54:55;;;;;;;8.73;6.05;;;;;;;6.79;79.00;101474.81;5044486;28;20036;-76
2021/05/31 03:57:20;;;;;;;8.48;5.70;;;;;;;6.80;78.40;101466.06;5042483;28;20060;-76
2021/05/31 03:59:48;;;;;;;7.40;6.00;;;;;;;6.89;79.14;101480.25;5043775;28;20091;-76
2021/05/31 04:02:13;;;;;;;10.00;6.82;;;;;;;6.97;78.65;101482.22;5043286;28;20047;-76
2021/05/31 04:04:48;;;;;;;8.60;6.35;;;;;;;7.05;78.77;101478.88;5041044;28;20037;-76
2021/05/31 04:11:33;;;;;;;8.82;5.57;;;;;;;7.15;78.60;101478.25;5041872;28;20559;-75
2021/05/31 04:12:56;;;;;;;7.80;6.93;;;;;;;7.34;78.36;101469.94;5040108;28;20072;-76
2021/05/31 04:15:21;;;;;;;11.52;7.03;;;;;;;7.45;78.13;101473.69;5043977;28;20126;-76
2021/05/31 04:17:47;;;;;;;9.98;7.20;;;;;;;7.54;78.05;101466.84;5041094;28;20032;-75
2021/05/31 04:20:13;;;;;;;9.10;6.63;;;;;;;7.63;77.77;101467.06;5043044;28;20576;-75
2021/05/31 04:22:39;;;;;;;10.27;6.78;;;;;;;7.75;77.79;101467.28;5042098;28;20051;-75
2021/05/31 04:25:05;;;;;;;11.30;6.95;;;;;;;7.80;77.77;101470.03;5041626;28;20124;-75
2021/05/31 04:27:31;;;;;;;8.98;6.35;;;;;;;7.89;77.61;101467.59;5044035;28;20043;-75
2021/05/31 04:29:56;;;;;;;9.52;6.72;;;;;;;8.00;77.45;101459.91;5041138;28;20037;-75
2021/05/31 04:32:22;;;;;;;9.07;6.65;;;;;;;8.10;77.61;101462.75;5044501;28;20029;-75
2021/05/31 04:34:47;;;;;;;10.30;8.18;;;;;;;8.19;77.54;101464.66;5041160;28;20037;-76
2021/05/31 04:37:13;;;;;;;10.82;8.50;;;;;;;8.31;77.47;101466.63;5041998;28;20456;-75
2021/05/31 04:39:38;;;;;;;10.07;8.45;;;;;;;8.42;77.48;101467.72;5042601;28;20039;-75
2021/05/31 04:42:07;;;;;;;9.15;7.85;;;;;;;8.56;77.51;101473.22;5041926;28;20064;-75
2021/05/31 04:44:34;;;;;;;11.40;9.75;;;;;;;8.67;77.71;101469.06;5042861;28;20496;-75
2021/05/31 04:46:59;;;;;;;9.98;8.75;;;;;;;8.78;77.25;101470.09;5041191;28;20045;-75
2021/05/31 04:49:25;;;;;;;9.73;8.73;;;;;;;8.95;76.46;101466.84;5044207;28;20096;-75
2021/05/31 04:51:51;;;;;;;12.00;8.60;;;;;;;9.06;76.54;101467.00;5039429;28;20413;-75
2021/05/31 04:54:16;;;;;;;15.27;12.43;;;;;;;9.18;75.48;101462.81;5041933;28;20112;-76
2021/05/31 04:56:42;;;;;;;15.70;10.63;;;;;;;9.28;75.25;101469.09;5041482;28;20543;-76
2021/05/31 04:59:07;;;;;;;13.23;9.73;;;;;;;9.39;74.94;101466.59;5042503;28;20473;-76
2021/05/31 05:01:34;;;;;;;10.85;8.80;;;;;;;9.49;74.79;101462.34;5047899;28;20507;-75
2021/05/31 05:03:59;;;;;;;10.88;8.45;;;;;;;9.58;73.79;101468.59;5041208;28;20459;-76
2021/05/31 05:06:25;;;;;;;12.15;8.52;;;;;;;9.69;74.00;101457.31;5040677;28;20034;-76
2021/05/31 05:08:53;;;;;;;9.65;7.95;;;;;;;9.80;73.39;101450.44;5043544;28;20030;-76
2021/05/31 05:11:19;;;;;;;11.27;8.70;;;;;;;9.87;73.34;101454.91;5039995;28;20045;-75
2021/05/31 05:13:44;;;;;;;11.50;9.15;;;;;;;9.94;73.07;101461.16;5040594;28;20117;-76
2021/05/31 05:16:10;;;;;;;11.27;8.48;;;;;;;10.04;73.07;101458.63;5041561;28;20041;-76
2021/05/31 05:18:42;;;;;;;9.48;7.03;;;;;;;10.15;72.77;101452.56;5041171;28;20025;-76
2021/05/31 05:21:08;;;;;;;11.90;9.30;;;;;;;10.23;72.39;101453.53;5042101;28;20112;-75
2021/05/31 05:23:33;;;;;;;9.52;7.72;;;;;;;10.31;72.38;101451.88;5045160;28;20041;-76
2021/05/31 05:25:58;;;;;;;11.63;8.55;;;;;;;10.40;71.39;101457.28;5051897;28;20048;-75
2021/05/31 05:28:24;;;;;;;11.02;8.30;;;;;;;10.50;70.97;101453.81;5040493;28;20106;-76
2021/05/31 05:30:50;;;;;;;9.00;7.25;;;;;;;10.52;71.18;101452.06;5043261;28;20408;-75
2021/05/31 05:33:16;;;;;;;10.70;7.47;;;;;;;10.55;69.90;101452.97;5039647;28;20049;-76
2021/05/31 05:35:48;;;;;;;9.75;7.72;;;;;;;10.59;70.00;101447.75;5038722;28;20030;-75
2021/05/31 05:46:00;;;;;;;18.90;12.63;;;;;;;10.95;68.67;101448.88;5038336;28;20695;-76
2021/05/31 05:48:28;;;;;;;10.90;7.80;;;;;;;11.11;67.81;101457.81;5040676;28;20072;-75
2021/05/31 05:51:04;;;;;;;10.02;7.13;;;;;;;11.19;67.44;101451.69;5042390;28;20053;-75
2021/05/31 05:53:32;;;;;;;9.85;7.43;;;;;;;11.28;66.73;101457.91;5041058;28;20050;-76
2021/05/31 05:55:57;;;;;;;9.93;6.00;;;;;;;11.37;66.54;101458.84;5041473;28;20036;-76
2021/05/31 05:58:27;;;;;;;11.75;7.93;;;;;;;11.50;66.38;101458.91;5045342;28;20033;-76
2021/05/31 06:00:53;;;;;;;8.57;7.05;;;;;;;11.58;65.48;101460.72;5040358;28;20030;-75
2021/05/31 06:03:18;;;;;;;8.57;7.10;;;;;;;11.69;65.49;101460.78;5042325;28;20582;-76
2021/05/31 06:05:44;;;;;;;10.90;8.63;;;;;;;11.75;65.68;101462.56;5039184;28;20022;-76
2021/05/31 06:08:09;;;;;;;9.57;6.65;;;;;;;11.92;66.14;101465.28;5042462;28;20512;-76
2021/05/31 06:10:34;;;;;;;9.32;7.38;;;;;;;12.05;64.51;101464.44;5038954;28;20029;-75
2021/05/31 06:13:00;;;;;;;9.70;6.25;;;;;;;12.13;64.49;101465.34;5039955;28;20377;-75
2021/05/31 06:15:25;;;;;;;9.30;6.70;;;;;;;12.18;64.68;101455.66;5040114;28;20038;-76
2021/05/31 06:17:50;;;;;;;10.38;7.55;;;;;;;12.19;64.59;101465.38;5050045;28;20032;-76
2021/05/31 06:20:16;;;;;;;8.52;7.15;;;;;;;12.29;64.22;101455.69;5048586;28;20072;-76
2021/05/31 06:22:41;;;;;;;8.65;6.95;;;;;;;12.35;64.11;101457.44;5051472;28;20033;-76
2021/05/31 06:25:09;;;;;;;11.63;7.75;;;;;;;12.42;64.00;101456.59;5039789;28;20493;-76
2021/05/31 06:27:34;;;;;;;11.35;8.50;;;;;;;12.56;64.05;101460.13;5042407;28;20416;-76
2021/05/31 06:30:00;;;;;;;10.57;7.72;;;;;;;12.64;63.42;101465.41;5040533;28;20033;-76
2021/05/31 06:32:25;;;;;;;11.77;8.80;;;;;;;12.70;63.91;101458.34;5039749;28;20447;-76
2021/05/31 06:34:50;;;;;;;12.27;8.13;;;;;;;12.82;63.32;101452.16;5041014;28;20037;-76
2021/05/31 06:37:16;;;;;;;9.70;7.43;;;;;;;12.87;63.00;101465.41;5038517;28;20044;-76
2021/05/31 06:39:41;;;;;;;10.00;6.65;;;;;;;12.95;62.26;101455.69;5042829;28;20029;-76
2021/05/31 06:42:07;;;;;;;10.55;6.47;;;;;;;13.03;61.25;101451.25;5039199;28;20512;-76
2021/05/31 06:44:32;;;;;;;8.73;6.28;;;;;;;13.10;60.33;101453.03;5041613;28;20037;-76
2021/05/31 06:46:57;;;;;;;7.43;5.85;;;;;;;13.24;59.42;101450.34;5040082;28;20025;-76
2021/05/31 06:49:23;;;;;;;8.30;5.90;;;;;;;13.32;59.55;101451.22;5039446;28;20037;-76
2021/05/31 06:51:49;;;;;;;7.97;5.57;;;;;;;13.42;59.68;101454.75;5040253;28;20159;-76
2021/05/31 06:54:14;;;;;;;8.82;5.88;;;;;;;13.56;59.57;101458.22;5039216;28;20033;-76
2021/05/31 06:56:39;;;;;;;8.15;6.20;;;;;;;13.68;59.26;101453.78;5042260;28;20040;-76
2021/05/31 06:59:05;;;;;;;6.70;4.82;;;;;;;13.79;57.59;101459.91;5038939;28;20040;-76
2021/05/31 07:01:30;;;;;;;6.95;4.80;;;;;;;13.88;57.20;101449.22;5041690;28;20385;-76
2021/05/31 07:03:55;;;;;;;6.00;4.40;;;;;;;14.01;57.47;101450.03;5039498;28;20032;-76
2021/05/31 07:06:21;;;;;;;6.80;5.38;;;;;;;14.09;57.60;101456.19;5040436;28;20037;-76
2021/05/31 07:08:47;;;;;;;7.30;4.80;;;;;;;14.18;56.83;101452.63;5041697;28;20040;-76
2021/05/31 07:11:17;;;;;;;7.03;4.95;;;;;;;14.27;57.16;101455.19;5043911;28;20079;-76
2021/05/31 07:13:43;;;;;;;7.25;5.18;;;;;;;14.35;56.70;101456.03;5043530;28;20045;-76
2021/05/31 07:16:16;;;;;;;6.07;4.68;;;;;;;14.36;55.44;101449.84;5042493;28;20042;-76
2021/05/31 07:18:42;;;;;;;11.05;5.03;;;;;;;14.53;56.73;101446.19;5045298;28;20482;-76
2021/05/31 07:21:07;;;;;;;5.93;4.20;;;;;;;14.65;54.98;101448.75;5042597;28;20120;-76
2021/05/31 07:23:36;;;;;;;5.80;4.20;;;;;;;14.79;53.56;101448.63;5045717;28;20039;-76
2021/05/31 07:26:02;;;;;;;7.50;3.88;;;;;;;14.88;54.07;101444.13;5042489;28;20033;-76
2021/05/31 07:28:27;;;;;;;7.45;3.65;;;;;;;15.05;53.96;101451.06;5045125;28;20040;-76
2021/05/31 07:30:53;;;;;;;8.57;4.50;;;;;;;15.13;53.58;101439.44;5047945;28;20033;-76
2021/05/31 07:33:19;;;;;;;6.18;4.20;;;;;;;15.31;54.02;101435.69;5044491;28;20038;-76
2021/05/31 07:35:44;;;;;;;5.22;3.60;;;;;;;15.32;54.19;101434.78;5042358;28;20381;-76
2021/05/31 07:38:09;;;;;;;5.07;3.55;;;;;;;15.39;53.66;101442.72;5041559;28;20087;-76
2021/05/31 07:40:35;;;;;;;7.10;3.40;;;;;;;15.46;53.94;101433.78;5045202;28;20037;-76
2021/05/31 07:43:01;;;;;;;5.13;3.20;;;;;;;15.59;53.23;101435.38;5040693;28;20083;-76
2021/05/31 07:45:26;;;;;;;6.57;4.13;;;;;;;15.70;53.26;101432.63;5043526;28;20120;-76
2021/05/31 07:47:52;;;;;;;8.77;4.45;;;;;;;15.74;53.34;101429.88;5042742;28;20036;-76
2021/05/31 07:50:19;;;;;;;6.05;3.72;;;;;;;15.87;53.40;101419.94;5043791;28;20037;-76
2021/05/31 07:52:44;;;;;;;6.70;4.28;;;;;;;15.99;53.10;101426.88;5042318;28;20037;-76
2021/05/31 07:55:12;;;;;;;8.57;4.32;;;;;;;16.06;52.97;101430.31;5042264;28;20555;-76
2021/05/31 07:57:39;;;;;;;6.50;4.43;;;;;;;15.86;51.65;101426.19;5044219;28;20036;-76
2021/05/31 08:00:08;;;;;;;6.32;3.72;;;;;;;16.00;51.89;101429.50;5048774;28;20090;-76
2021/05/31 08:02:41;;;;;;;5.35;4.05;;;;;;;16.15;52.18;101425.75;5041436;28;20095;-76
2021/05/31 08:05:07;;;;;;;6.90;3.45;;;;;;;16.25;52.01;101423.84;5042165;28;20496;-76
2021/05/31 08:07:33;;;;;;;6.45;4.18;;;;;;;16.38;51.90;101420.09;5041588;28;20083;-76
2021/05/31 08:09:58;;;;;;;7.30;4.53;;;;;;;16.44;50.96;101419.97;5044629;28;20124;-76
2021/05/31 08:12:23;;;;;;;7.13;4.50;;;;;;;16.59;51.92;101410.84;5044427;28;20028;-76
2021/05/31 08:14:49;;;;;;;5.90;3.50;;;;;;;16.69;51.16;101410.69;5041685;28;20041;-76
2021/05/31 08:17:14;;;;;;;6.07;3.90;;;;;;;16.84;50.86;101413.09;5043335;28;20033;-76
2021/05/31 08:19:40;;;;;;;5.45;3.50;;;;;;;16.92;49.79;101415.63;5043160;28;20043;-76
2021/05/31 08:22:06;;;;;;;5.13;3.00;;;;;;;16.90;48.64;101410.34;5041504;28;20040;-76
2021/05/31 08:24:32;;;;;;;5.70;2.95;;;;;;;16.96;48.90;101407.56;5042532;28;20485;-76
2021/05/31 08:26:58;;;;;;;12.23;6.72;;;;;;;16.94;48.76;101406.69;5040759;28;20029;-76
2021/05/31 08:29:23;;;;;;;18.42;7.60;;;;;;;17.18;49.31;101409.81;5040986;28;20040;-76
2021/05/31 08:31:50;;;;;;;6.07;3.25;;;;;;;17.30;48.14;101406.91;5042425;28;20041;-76
2021/05/31 08:34:15;;;;;;;4.75;2.78;;;;;;;17.30;47.57;101404.25;5041389;28;20036;-76
2021/05/31 08:36:41;;;;;;;12.63;6.35;;;;;;;17.47;46.53;101401.22;5042506;28;20045;-76
2021/05/31 08:39:07;;;;;;;8.60;3.97;;;;;;;17.67;45.42;101398.13;5041671;28;20037;-76
2021/05/31 08:41:34;;;;;;;8.82;5.13;;;;;;;17.87;46.02;101392.41;5041503;28;20037;-76
2021/05/31 08:43:59;;;;;;;10.82;4.93;;;;;;;18.07;45.88;101386.56;5043484;28;20029;-76
2021/05/31 08:46:24;;;;;;;6.68;4.03;;;;;;;18.24;44.84;101397.75;5040665;28;20036;-76
2021/05/31 08:48:50;;;;;;;7.28;3.88;;;;;;;18.42;44.82;101392.84;5042603;28;20037;-76
2021/05/31 08:51:18;;;;;;;4.78;2.47;;;;;;;18.67;43.83;101385.97;5041296;28;20072;-76
2021/05/31 08:53:44;;;;;;;9.35;3.58;;;;;;;18.80;43.20;101379.41;5042777;28;20065;-76
2021/05/31 08:56:10;;;;;;;5.38;2.80;;;;;;;18.97;43.25;101384.31;5041770;28;20084;-76
2021/05/31 08:58:35;;;;;;;7.53;3.42;;;;;;;19.14;43.75;101383.84;5041929;28;20032;-76
2021/05/31 09:01:00;;;;;;;4.45;2.22;;;;;;;19.23;42.81;101375.56;5042929;28;20577;-76
2021/05/31 09:03:26;;;;;;;3.60;2.20;;;;;;;19.26;42.61;101378.13;5040460;28;20095;-76
2021/05/31 09:05:58;;;;;;;6.97;2.10;;;;;;;19.38;40.44;101378.69;5043439;28;20036;-76
2021/05/31 09:08:24;;;;;;;5.82;2.08;;;;;;;19.50;39.49;101370.31;5040373;28;20038;-76
2021/05/31 09:10:59;;;;;;;3.17;1.58;;;;;;;19.43;38.49;101368.75;5043659;28;20151;-76
2021/05/31 09:13:27;;;;;;;4.75;1.90;;;;;;;19.71;37.56;101363.47;5040466;28;20083;-76
2021/05/31 09:16:13;;;;;;;4.07;2.22;;;;;;;19.96;36.46;101368.03;5043235;28;20108;-76
2021/05/31 09:18:43;;;;;;;6.35;2.60;;;;;;;20.00;37.04;101375.94;5040977;28;20044;-76
2021/05/31 09:21:20;;;;;;;5.28;1.70;;;;;;;19.53;37.68;101367.53;5039861;28;20504;-76
2021/05/31 09:24:07;;;;;;;4.15;1.90;;;;;;;19.36;36.33;101369.81;5041793;28;20393;-77
2021/05/31 09:26:51;;;;;;;4.82;2.75;;;;;;;19.39;37.11;101372.44;5041024;28;20496;-76
2021/05/31 09:29:19;;;;;;;3.53;1.83;;;;;;;19.53;37.30;101367.53;5039902;28;20030;-76
2021/05/31 09:31:45;;;;;;;2.72;1.70;;;;;;;19.74;37.34;101367.84;5043108;28;20090;-76
2021/05/31 09:34:14;;;;;;;4.20;1.85;;;;;;;20.01;36.81;101366.97;5021725;28;20132;-76
2021/05/31 09:36:53;;;;;;;3.10;1.80;;;;;;;20.29;35.51;101363.41;5042311;28;20124;-76
2021/05/31 09:39:26;;;;;;;3.58;1.90;;;;;;;20.24;37.40;101362.66;5039826;28;20127;-76
2021/05/31 09:42:20;;;;;;;3.67;1.85;;;;;;;20.07;35.85;101366.78;5040074;28;20124;-76
2021/05/31 09:44:57;;;;;;;4.82;1.90;;;;;;;20.14;35.78;101368.31;5039148;28;20106;-76
2021/05/31 09:47:31;;;;;;;4.55;1.90;;;;;;;20.33;35.07;101359.66;5040131;28;20124;-76
2021/05/31 09:49:56;;;;;;;3.55;2.10;;;;;;;20.63;35.70;101354.25;5046762;28;20025;-76
2021/05/31 09:52:22;;;;;;;9.35;2.53;;;;;;;21.02;35.35;101352.81;5042388;28;20454;-76
2021/05/31 09:54:49;;;;;;;5.65;2.15;;;;;;;21.37;34.15;101352.41;5039115;28;20037;-76
2021/05/31 09:57:37;;;;;;;3.47;1.80;;;;;;;21.36;34.01;101340.81;5039294;28;20052;-77
2021/05/31 10:00:16;;;;;;;5.50;1.67;;;;;;;21.17;33.95;101343.31;5041630;28;20108;-77
2021/05/31 10:10:35;;;;;;;4.15;1.90;;;;;;;19.81;36.30;101342.63;5040429;28;20044;-76
2021/05/31 10:13:01;;;;;;;3.10;2.00;;;;;;;19.72;35.78;101337.56;5041858;28;20033;-76
2021/05/31 10:15:29;;;;;;;3.60;1.90;;;;;;;19.77;36.34;101340.97;5022995;28;20063;-76
2021/05/31 10:17:57;;;;;;;4.75;2.17;;;;;;;19.75;37.53;101343.69;5041819;28;20041;-76
2021/05/31 10:20:27;;;;;;;4.15;1.83;;;;;;;19.79;36.09;101349.84;5040142;28;20033;-76
2021/05/31 10:22:53;;;;;;;4.18;2.05;;;;;;;19.85;36.70;101344.28;5041681;28;20514;-77
2021/05/31 10:25:21;;;;;;;5.03;2.03;;;;;;;19.88;36.18;101344.16;5039766;28;20032;-76
2021/05/31 10:27:50;;;;;;;5.88;2.20;;;;;;;20.28;35.89;101335.72;5041239;28;20489;-76
2021/05/31 10:30:17;;;;;;;5.70;2.45;;;;;;;20.81;34.97;101326.75;5038282;28;20093;-76
2021/05/31 10:32:42;;;;;;;4.25;1.85;;;;;;;21.21;33.65;101322.59;5041258;28;20068;-76
2021/05/31 10:35:20;;;;;;;4.10;2.10;;;;;;;21.38;31.85;101322.88;5038815;28;20072;-77
2021/05/31 10:38:13;;;;;;;4.15;1.83;;;;;;;21.32;31.83;101317.69;5050169;28;20038;-75
2021/05/31 10:40:45;;;;;;;5.32;2.45;;;;;;;21.43;32.80;101318.19;5048695;28;20037;-75
2021/05/31 10:43:11;;;;;;;;;;;;;;;21.73;32.83;101311.66;5040668;28;20030;-75
2021/05/31 10:45:39;;;;;;;5.28;3.50;;;;;;;22.04;32.15;101309.47;5035597;28;20385;-75
2021/05/31 10:48:11;;;;;;;2.75;1.65;;;;;;;21.47;32.43;101318.94;5041461;28;20084;-75
2021/05/31 10:50:39;;;;;;;3.78;1.75;;;;;;;21.42;33.12;101303.00;5041309;28;20056;-75
2021/05/31 10:53:25;;;;;;;3.78;2.10;;;;;;;21.29;31.50;101296.31;5045918;28;20032;-75
2021/05/31 10:55:56;;;;;;;4.30;2.17;;;;;;;21.62;32.49;101304.03;5042423;28;20068;-75
2021/05/31 10:58:44;;;;;;;5.90;1.83;;;;;;;21.99;31.71;101302.53;5039508;28;20030;-75
2021/05/31 11:01:34;;;;;;;4.00;1.50;;;;;;;21.85;29.80;101297.72;5042337;28;20033;-75
2021/05/31 11:04:14;;;;;;;4.28;1.80;;;;;;;21.99;30.78;101286.41;5042639;28;20124;-75
2021/05/31 11:06:43;;;;;;;5.07;3.20;;;;;;;22.27;30.67;101297.78;5042413;28;20033;-75
2021/05/31 11:09:28;;;;;;;4.65;2.67;;;;;;;22.74;30.05;101286.75;5045645;28;20040;-75
2021/05/31 11:11:56;;;;;;;3.35;1.90;;;;;;;23.17;29.80;101300.09;5040435;28;20024;-75
2021/05/31 11:14:46;;;;;;;2.80;1.55;;;;;;;22.89;30.68;101298.63;5042395;28;20039;-75
2021/05/31 11:17:16;;;;;;;3.47;2.03;;;;;;;22.64;30.28;101290.81;5042576;28;20065;-75
2021/05/31 11:19:45;;;;;;;5.18;2.80;;;;;;;22.93;30.43;101288.63;5044840;28;20511;-75
2021/05/31 11:22:16;;;;;;;4.70;2.65;;;;;;;23.29;28.48;101283.38;5041384;28;20033;-75
2021/05/31 11:24:50;;;;;;;5.45;2.92;;;;;;;23.59;27.91;101286.41;5044527;28;20029;-75
2021/05/31 11:27:15;;;;;;;3.30;2.20;;;;;;;23.51;27.74;101277.81;5042011;28;20507;-75
2021/05/31 11:29:40;;;;;;;6.03;2.00;;;;;;;23.28;26.76;101278.06;5044766;28;20064;-76
2021/05/31 11:32:06;;;;;;;5.43;1.50;;;;;;;22.70;28.29;101285.13;5042045;28;20045;-77
2021/05/31 11:34:32;;;;;;;3.78;1.38;;;;;;;22.33;28.66;101285.03;5044802;28;20036;-77
2021/05/31 11:36:59;;;;;;;3.25;1.45;;;;;;;22.02;29.31;101283.59;5042209;28;20485;-77
2021/05/31 11:39:30;;;;;;;4.38;2.40;;;;;;;21.94;28.82;101283.03;5044479;28;20082;-77
2021/05/31 11:41:56;;;;;;;5.18;2.70;;;;;;;22.71;28.36;101276.13;5042348;28;20044;-78
2021/05/31 11:44:27;;;;;;;4.50;3.03;;;;;;;23.43;28.11;101271.06;5043782;28;20045;-78
2021/05/31 11:46:56;;;;;;;4.40;2.50;;;;;;;24.09;26.39;101275.91;5042382;28;20070;-78
2021/05/31 11:49:24;;;;;;;4.22;2.00;;;;;;;24.44;25.90;101266.94;5043064;28;20087;-78
2021/05/31 11:52:04;;;;;;;5.70;3.53;;;;;;;24.52;25.24;101268.31;5041518;28;20044;-77